createdAt,value
2018-09-06T00:00:22.808Z,0.00
2018-09-06T00:01:22.784Z,0.00
2018-09-06T00:02:22.716Z,0.00
2018-09-06T00:03:22.757Z,0.00
2018-09-06T00:04:22.718Z,0.00
2018-09-06T00:05:22.694Z,0.00
2018-09-06T00:06:22.720Z,0.00
2018-09-06T00:07:22.712Z,0.00
2018-09-06T00:08:22.702Z,0.00
2018-09-06T00:09:22.667Z,0.00
2018-09-06T00:10:22.676Z,0.00
2018-09-06T00:11:22.617Z,0.00
2018-09-06T00:12:22.607Z,0.00
2018-09-06T00:13:22.638Z,0.00
2018-09-06T00:14:22.645Z,0.00
2018-09-06T00:15:22.598Z,0.00
2018-09-06T00:16:22.604Z,0.00
2018-09-06T00:17:22.550Z,0.00
2018-09-06T00:18:22.551Z,0.00
2018-09-06T00:19:22.575Z,0.00
2018-09-06T00:20:22.584Z,0.00
2018-09-06T00:21:22.549Z,0.00
2018-09-06T00:22:22.541Z,0.00
2018-09-06T00:23:22.494Z,0.00
2018-09-06T00:24:22.475Z,0.00
2018-09-06T00:25:22.482Z,0.00
2018-09-06T00:26:22.454Z,0.00
2018-09-06T00:27:22.483Z,0.00
2018-09-06T00:28:22.443Z,0.00
2018-09-06T00:29:22.472Z,0.00
2018-09-06T00:30:22.511Z,0.00
2018-09-06T00:31:22.436Z,0.00
2018-09-06T00:32:22.436Z,0.00
2018-09-06T00:33:22.432Z,0.00
2018-09-06T00:34:22.400Z,0.00
2018-09-06T00:35:22.415Z,0.00
2018-09-06T00:36:22.355Z,0.00
2018-09-06T00:37:22.378Z,0.00
2018-09-06T00:38:22.370Z,0.00
2018-09-06T00:39:22.355Z,0.00
2018-09-06T00:40:22.375Z,0.00
2018-09-06T00:41:22.343Z,0.00
2018-09-06T00:42:22.329Z,0.00
2018-09-06T00:43:22.304Z,0.00
2018-09-06T00:44:22.301Z,0.00
2018-09-06T00:45:22.314Z,0.00
2018-09-06T00:46:22.294Z,0.00
2018-09-06T00:47:22.295Z,0.00
2018-09-06T00:48:22.260Z,0.00
2018-09-06T00:49:22.247Z,0.00
2018-09-06T00:50:22.262Z,0.00
2018-09-06T00:51:22.227Z,0.00
2018-09-06T00:52:22.222Z,0.00
2018-09-06T00:53:22.211Z,0.00
2018-09-06T00:54:22.191Z,0.00
2018-09-06T00:55:22.177Z,0.00
2018-09-06T00:56:22.171Z,0.00
2018-09-06T00:57:22.166Z,0.00
2018-09-06T00:58:22.106Z,0.00
2018-09-06T00:59:22.148Z,0.00
2018-09-06T01:00:22.150Z,0.00
2018-09-06T01:01:22.133Z,0.00
2018-09-06T01:02:22.101Z,0.00
2018-09-06T01:03:22.096Z,0.00
2018-09-06T01:04:22.083Z,0.00
2018-09-06T01:05:22.096Z,0.00
2018-09-06T01:06:22.065Z,0.00
2018-09-06T01:07:22.053Z,0.00
2018-09-06T01:08:22.001Z,0.00
2018-09-06T01:09:22.000Z,0.00
2018-09-06T01:10:22.016Z,0.00
2018-09-06T01:11:22.081Z,0.00
2018-09-06T01:12:21.999Z,0.00
2018-09-06T01:13:21.987Z,0.00
2018-09-06T01:14:21.977Z,0.00
2018-09-06T01:15:21.948Z,0.00
2018-09-06T01:16:21.971Z,0.00
2018-09-06T01:17:21.978Z,0.00
2018-09-06T01:18:21.934Z,0.00
2018-09-06T01:19:21.955Z,0.00
2018-09-06T01:20:21.934Z,0.00
2018-09-06T01:21:21.906Z,0.00
2018-09-06T01:22:21.895Z,0.00
2018-09-06T01:23:21.887Z,0.00
2018-09-06T01:24:21.868Z,0.00
2018-09-06T01:25:21.881Z,0.00
2018-09-06T01:26:21.860Z,0.00
2018-09-06T01:27:21.882Z,0.00
2018-09-06T01:28:21.828Z,0.00
2018-09-06T01:29:21.815Z,0.00
2018-09-06T01:30:21.833Z,0.00
2018-09-06T01:31:21.801Z,0.00
2018-09-06T01:32:21.792Z,0.00
2018-09-06T01:33:21.777Z,0.00
2018-09-06T01:34:21.771Z,0.00
2018-09-06T01:35:21.787Z,0.00
2018-09-06T01:36:21.742Z,0.00
2018-09-06T01:37:21.755Z,0.00
2018-09-06T01:38:21.771Z,0.00
2018-09-06T01:39:21.718Z,0.00
2018-09-06T01:40:21.738Z,0.00
2018-09-06T01:41:21.665Z,0.00
2018-09-06T01:42:21.686Z,0.00
2018-09-06T01:43:21.624Z,0.00
2018-09-06T01:44:21.668Z,0.00
2018-09-06T01:45:21.712Z,0.00
2018-09-06T01:46:21.600Z,0.00
2018-09-06T01:47:21.591Z,0.00
2018-09-06T01:48:21.606Z,0.00
2018-09-06T01:49:21.623Z,0.00
2018-09-06T01:50:21.713Z,0.00
2018-09-06T01:51:21.536Z,0.00
2018-09-06T01:52:21.579Z,0.00
2018-09-06T01:53:21.563Z,0.00
2018-09-06T01:54:21.558Z,0.00
2018-09-06T01:55:21.712Z,0.00
2018-09-06T01:56:21.501Z,0.00
2018-09-06T01:57:21.520Z,0.00
2018-09-06T01:58:21.507Z,0.00
2018-09-06T01:59:21.499Z,0.00
2018-09-06T02:00:21.464Z,0.00
2018-09-06T02:01:21.472Z,0.00
2018-09-06T02:02:21.468Z,0.00
2018-09-06T02:03:21.453Z,0.00
2018-09-06T02:04:21.447Z,0.00
2018-09-06T02:05:21.459Z,0.00
2018-09-06T02:06:21.423Z,0.00
2018-09-06T02:07:21.406Z,0.00
2018-09-06T02:08:21.405Z,0.00
2018-09-06T02:09:21.414Z,0.00
2018-09-06T02:10:21.386Z,0.00
2018-09-06T02:11:21.369Z,0.00
2018-09-06T02:12:21.358Z,0.00
2018-09-06T02:13:21.348Z,0.00
2018-09-06T02:14:21.444Z,0.00
2018-09-06T02:15:21.358Z,0.00
2018-09-06T02:16:21.272Z,0.00
2018-09-06T02:17:21.308Z,0.00
2018-09-06T02:18:21.296Z,0.00
2018-09-06T02:19:21.279Z,0.00
2018-09-06T02:20:21.353Z,0.00
2018-09-06T02:21:21.262Z,0.00
2018-09-06T02:22:21.206Z,0.00
2018-09-06T02:23:21.238Z,0.00
2018-09-06T02:24:21.306Z,0.00
2018-09-06T02:25:21.223Z,0.00
2018-09-06T02:26:21.267Z,0.00
2018-09-06T02:27:21.197Z,0.00
2018-09-06T02:28:21.185Z,0.00
2018-09-06T02:29:21.127Z,0.00
2018-09-06T02:30:21.158Z,0.00
2018-09-06T02:31:21.180Z,0.00
2018-09-06T02:32:21.139Z,0.00
2018-09-06T02:33:21.127Z,0.00
2018-09-06T02:34:21.116Z,0.00
2018-09-06T02:35:21.112Z,0.00
2018-09-06T02:36:21.121Z,0.00
2018-09-06T02:37:21.085Z,0.00
2018-09-06T02:38:21.081Z,0.00
2018-09-06T02:39:21.070Z,0.00
2018-09-06T02:40:21.053Z,0.00
2018-09-06T02:41:21.062Z,0.00
2018-09-06T02:42:20.982Z,0.00
2018-09-06T02:43:21.010Z,0.00
2018-09-06T02:44:21.006Z,0.00
2018-09-06T02:45:20.953Z,0.00
2018-09-06T02:46:21.002Z,0.00
2018-09-06T02:47:20.930Z,0.00
2018-09-06T02:48:20.965Z,0.00
2018-09-06T02:49:20.955Z,0.00
2018-09-06T02:50:20.952Z,0.00
2018-09-06T02:51:20.952Z,0.00
2018-09-06T02:52:20.918Z,0.00
2018-09-06T02:53:20.916Z,0.00
2018-09-06T02:54:20.899Z,0.00
2018-09-06T02:55:20.886Z,0.00
2018-09-06T02:56:20.854Z,0.00
2018-09-06T02:57:20.869Z,0.00
2018-09-06T02:58:20.853Z,0.00
2018-09-06T02:59:20.876Z,0.00
2018-09-06T03:00:20.789Z,0.00
2018-09-06T03:01:20.860Z,0.00
2018-09-06T03:02:20.807Z,0.00
2018-09-06T03:03:20.755Z,0.00
2018-09-06T03:04:20.749Z,0.00
2018-09-06T03:05:20.773Z,0.00
2018-09-06T03:06:20.781Z,0.00
2018-09-06T03:07:20.756Z,0.00
2018-09-06T03:08:20.740Z,0.00
2018-09-06T03:09:20.695Z,0.00
2018-09-06T03:10:20.718Z,0.00
2018-09-06T03:11:20.730Z,0.00
2018-09-06T03:12:20.694Z,0.00
2018-09-06T03:13:20.670Z,0.00
2018-09-06T03:14:20.622Z,0.00
2018-09-06T03:15:20.665Z,0.00
2018-09-06T03:16:20.676Z,0.00
2018-09-06T03:17:20.650Z,0.00
2018-09-06T03:18:20.629Z,0.00
2018-09-06T03:19:20.612Z,0.00
2018-09-06T03:20:20.607Z,0.00
2018-09-06T03:21:20.619Z,0.00
2018-09-06T03:22:20.587Z,0.00
2018-09-06T03:23:20.541Z,0.00
2018-09-06T03:24:20.571Z,0.00
2018-09-06T03:25:20.572Z,0.00
2018-09-06T03:26:20.565Z,0.00
2018-09-06T03:27:20.535Z,0.00
2018-09-06T03:28:20.521Z,0.00
2018-09-06T03:29:20.535Z,0.00
2018-09-06T03:30:20.512Z,0.00
2018-09-06T03:31:20.515Z,0.00
2018-09-06T03:32:20.484Z,0.00
2018-09-06T03:33:20.471Z,0.00
2018-09-06T03:34:20.452Z,0.00
2018-09-06T03:35:20.442Z,0.00
2018-09-06T03:36:20.455Z,0.00
2018-09-06T03:37:20.426Z,0.00
2018-09-06T03:38:20.420Z,0.00
2018-09-06T03:39:20.426Z,0.00
2018-09-06T03:40:20.344Z,0.00
2018-09-06T03:41:20.337Z,0.00
2018-09-06T03:42:20.388Z,0.00
2018-09-06T03:43:20.356Z,0.00
2018-09-06T03:44:20.347Z,0.00
2018-09-06T03:45:20.363Z,0.00
2018-09-06T03:46:20.286Z,0.00
2018-09-06T03:47:20.374Z,0.00
2018-09-06T03:48:20.302Z,0.00
2018-09-06T03:49:20.298Z,0.00
2018-09-06T03:50:20.284Z,0.00
2018-09-06T03:51:20.225Z,0.00
2018-09-06T03:52:20.276Z,0.00
2018-09-06T03:53:20.254Z,0.00
2018-09-06T03:54:20.238Z,0.00
2018-09-06T03:55:20.228Z,0.00
2018-09-06T03:56:20.215Z,0.00
2018-09-06T03:57:20.234Z,0.00
2018-09-06T03:58:20.193Z,0.00
2018-09-06T03:59:20.184Z,0.00
2018-09-06T04:00:20.167Z,0.00
2018-09-06T04:01:20.171Z,0.00
2018-09-06T04:02:20.168Z,0.00
2018-09-06T04:03:20.141Z,0.00
2018-09-06T04:04:20.112Z,0.00
2018-09-06T04:05:20.119Z,0.00
2018-09-06T04:06:20.108Z,0.00
2018-09-06T04:07:20.078Z,0.00
2018-09-06T04:08:20.092Z,0.00
2018-09-06T04:09:20.366Z,0.00
2018-09-06T04:10:20.244Z,0.00
2018-09-06T04:11:20.059Z,0.00
2018-09-06T04:12:20.666Z,0.00
2018-09-06T04:13:20.036Z,0.00
2018-09-06T04:14:20.029Z,0.00
2018-09-06T04:15:20.016Z,0.00
2018-09-06T04:16:20.021Z,0.00
2018-09-06T04:17:20.011Z,0.00
2018-09-06T04:18:20.093Z,0.00
2018-09-06T04:19:19.977Z,4.00
2018-09-06T04:20:19.965Z,4.00
2018-09-06T04:21:19.952Z,0.00
2018-09-06T04:22:20.029Z,4.00
2018-09-06T04:23:19.929Z,4.00
2018-09-06T04:24:19.968Z,4.00
2018-09-06T04:25:19.864Z,4.00
2018-09-06T04:26:19.924Z,4.00
2018-09-06T04:27:19.924Z,4.00
2018-09-06T04:28:19.912Z,8.00
2018-09-06T04:29:19.824Z,8.00
2018-09-06T04:30:19.856Z,12.00
2018-09-06T04:31:19.844Z,8.00
2018-09-06T04:32:19.836Z,12.00
2018-09-06T04:33:19.827Z,12.00
2018-09-06T04:34:19.813Z,16.00
2018-09-06T04:35:19.844Z,16.00
2018-09-06T04:36:19.871Z,24.00
2018-09-06T04:37:19.806Z,24.00
2018-09-06T04:38:19.771Z,36.00
2018-09-06T04:39:19.761Z,40.00
2018-09-06T04:40:19.748Z,48.00
2018-09-06T04:41:19.737Z,56.00
2018-09-06T04:42:19.705Z,72.00
2018-09-06T04:43:19.715Z,84.00
2018-09-06T04:44:19.704Z,92.00
2018-09-06T04:45:19.707Z,104.00
2018-09-06T04:46:19.692Z,120.00
2018-09-06T04:47:19.670Z,136.00
2018-09-06T04:48:19.678Z,148.00
2018-09-06T04:49:19.679Z,156.00
2018-09-06T04:50:19.599Z,168.00
2018-09-06T04:51:19.640Z,184.00
2018-09-06T04:52:19.664Z,196.00
2018-09-06T04:53:19.576Z,208.00
2018-09-06T04:54:19.598Z,204.00
2018-09-06T04:55:19.644Z,192.00
2018-09-06T04:56:19.589Z,180.00
2018-09-06T04:57:19.598Z,172.00
2018-09-06T04:58:19.573Z,164.00
2018-09-06T04:59:19.509Z,164.00
2018-09-06T05:00:19.549Z,168.00
2018-09-06T05:01:19.530Z,176.00
2018-09-06T05:02:19.541Z,188.00
2018-09-06T05:03:19.503Z,204.00
2018-09-06T05:04:19.640Z,228.00
2018-09-06T05:05:19.485Z,256.00
2018-09-06T05:06:19.474Z,284.00
2018-09-06T05:07:19.472Z,312.00
2018-09-06T05:08:19.509Z,340.00
2018-09-06T05:09:19.459Z,356.00
2018-09-06T05:10:19.399Z,372.00
2018-09-06T05:11:19.422Z,388.00
2018-09-06T05:12:19.415Z,400.00
2018-09-06T05:13:19.431Z,424.00
2018-09-06T05:14:19.396Z,436.00
2018-09-06T05:15:19.457Z,444.00
2018-09-06T05:16:19.383Z,436.00
2018-09-06T05:17:19.360Z,420.00
2018-09-06T05:18:19.369Z,400.00
2018-09-06T05:19:19.365Z,388.00
2018-09-06T05:20:19.338Z,376.00
2018-09-06T05:21:19.373Z,372.00
2018-09-06T05:22:19.295Z,368.00
2018-09-06T05:23:19.356Z,368.00
2018-09-06T05:24:19.291Z,360.00
2018-09-06T05:25:19.310Z,360.00
2018-09-06T05:26:19.272Z,364.00
2018-09-06T05:27:19.252Z,376.00
2018-09-06T05:28:19.262Z,384.00
2018-09-06T05:29:19.240Z,408.00
2018-09-06T05:30:19.221Z,428.00
2018-09-06T05:31:19.236Z,448.00
2018-09-06T05:32:19.153Z,476.00
2018-09-06T05:33:19.233Z,512.00
2018-09-06T05:34:19.178Z,556.00
2018-09-06T05:35:19.242Z,612.00
2018-09-06T05:36:19.208Z,664.00
2018-09-06T05:37:19.147Z,688.00
2018-09-06T05:38:19.166Z,684.00
2018-09-06T05:39:19.122Z,664.00
2018-09-06T05:40:19.116Z,684.00
2018-09-06T05:41:19.057Z,708.00
2018-09-06T05:42:19.090Z,712.00
2018-09-06T05:43:19.113Z,744.00
2018-09-06T05:44:19.924Z,744.00
2018-09-06T05:45:19.911Z,756.00
2018-09-06T05:46:19.931Z,772.00
2018-09-06T05:47:19.241Z,772.00
2018-09-06T05:48:20.408Z,768.00
2018-09-06T05:49:19.017Z,744.00
2018-09-06T05:50:19.011Z,744.00
2018-09-06T05:51:19.000Z,772.00
2018-09-06T05:52:18.985Z,824.00
2018-09-06T05:53:19.030Z,864.00
2018-09-06T05:54:18.961Z,892.00
2018-09-06T05:55:18.951Z,936.00
2018-09-06T05:56:18.914Z,972.00
2018-09-06T05:57:18.937Z,988.00
2018-09-06T05:58:18.938Z,996.00
2018-09-06T05:59:18.874Z,992.00
2018-09-06T06:00:18.903Z,1000.00
2018-09-06T06:01:18.893Z,1020.00
2018-09-06T06:02:19.007Z,1048.00
2018-09-06T06:03:19.165Z,1080.00
2018-09-06T06:04:18.858Z,1116.00
2018-09-06T06:05:18.874Z,1156.00
2018-09-06T06:06:18.837Z,1196.00
2018-09-06T06:07:18.834Z,1268.00
2018-09-06T06:08:18.992Z,1352.00
2018-09-06T06:09:18.802Z,1424.00
2018-09-06T06:10:18.770Z,1512.00
2018-09-06T06:11:18.741Z,1608.00
2018-09-06T06:12:18.843Z,1684.00
2018-09-06T06:13:18.786Z,1716.00
2018-09-06T06:14:18.840Z,1756.00
2018-09-06T06:15:18.739Z,1760.00
2018-09-06T06:16:18.765Z,1716.00
2018-09-06T06:17:18.760Z,1628.00
2018-09-06T06:18:18.693Z,1456.00
2018-09-06T06:19:18.677Z,1280.00
2018-09-06T06:20:18.702Z,1148.00
2018-09-06T06:21:18.835Z,1060.00
2018-09-06T06:22:18.734Z,1000.00
2018-09-06T06:23:18.644Z,976.00
2018-09-06T06:24:18.619Z,992.00
2018-09-06T06:25:18.632Z,1064.00
2018-09-06T06:26:18.624Z,1168.00
2018-09-06T06:27:18.614Z,1280.00
2018-09-06T06:28:18.656Z,1388.00
2018-09-06T06:29:18.591Z,1432.00
2018-09-06T06:30:18.586Z,1396.00
2018-09-06T06:31:18.574Z,1424.00
2018-09-06T06:32:18.581Z,1444.00
2018-09-06T06:33:18.573Z,1460.00
2018-09-06T06:34:18.541Z,1500.00
2018-09-06T06:35:18.550Z,1548.00
2018-09-06T06:36:18.520Z,1556.00
2018-09-06T06:37:18.512Z,1528.00
2018-09-06T06:38:18.477Z,1476.00
2018-09-06T06:39:18.489Z,1384.00
2018-09-06T06:40:18.479Z,1304.00
2018-09-06T06:41:18.467Z,1268.00
2018-09-06T06:42:18.455Z,1156.00
2018-09-06T06:43:18.463Z,1064.00
2018-09-06T06:44:18.440Z,1080.00
2018-09-06T06:45:18.422Z,1084.00
2018-09-06T06:46:18.412Z,1116.00
2018-09-06T06:47:18.370Z,1120.00
2018-09-06T06:48:18.421Z,1180.00
2018-09-06T06:49:25.473Z,1224.00
2018-09-06T06:50:18.334Z,1280.00
2018-09-06T06:51:18.361Z,1376.00
2018-09-06T06:52:18.348Z,1396.00
2018-09-06T06:53:18.367Z,1456.00
2018-09-06T06:54:18.308Z,1516.00
2018-09-06T06:55:18.316Z,1512.00
2018-09-06T06:56:18.331Z,1512.00
2018-09-06T06:57:18.299Z,1524.00
2018-09-06T06:58:18.286Z,1584.00
2018-09-06T06:59:18.305Z,1608.00
2018-09-06T07:00:18.264Z,1572.00
2018-09-06T07:01:18.251Z,1384.00
2018-09-06T07:02:18.226Z,1244.00
2018-09-06T07:03:18.228Z,1216.00
2018-09-06T07:04:18.309Z,1224.00
2018-09-06T07:05:18.227Z,1220.00
2018-09-06T07:06:18.198Z,1296.00
2018-09-06T07:07:18.184Z,1460.00
2018-09-06T07:08:18.177Z,1676.00
2018-09-06T07:09:18.193Z,1924.00
2018-09-06T07:10:18.152Z,2216.00
2018-09-06T07:11:18.129Z,2836.00
2018-09-06T07:12:18.129Z,3764.00
2018-09-06T07:13:18.122Z,4388.00
2018-09-06T07:14:18.131Z,4700.00
2018-09-06T07:15:18.059Z,5048.00
2018-09-06T07:16:18.091Z,5424.00
2018-09-06T07:17:18.047Z,5792.00
2018-09-06T07:18:18.073Z,5952.00
2018-09-06T07:19:18.085Z,5916.00
2018-09-06T07:20:18.043Z,5808.00
2018-09-06T07:21:18.046Z,5660.00
2018-09-06T07:22:18.018Z,5660.00
2018-09-06T07:23:18.007Z,5736.00
2018-09-06T07:24:18.020Z,5520.00
2018-09-06T07:25:17.991Z,5212.00
2018-09-06T07:26:17.973Z,4820.00
2018-09-06T07:27:17.975Z,4424.00
2018-09-06T07:28:17.909Z,4220.00
2018-09-06T07:29:17.984Z,4024.00
2018-09-06T07:30:17.930Z,3816.00
2018-09-06T07:31:17.925Z,3580.00
2018-09-06T07:32:17.876Z,3392.00
2018-09-06T07:33:17.893Z,3300.00
2018-09-06T07:34:17.909Z,3236.00
2018-09-06T07:35:17.910Z,3032.00
2018-09-06T07:36:17.826Z,2668.00
2018-09-06T07:37:17.867Z,2340.00
2018-09-06T07:38:17.860Z,2200.00
2018-09-06T07:39:17.861Z,2300.00
2018-09-06T07:40:17.847Z,2564.00
2018-09-06T07:41:17.842Z,2876.00
2018-09-06T07:42:17.802Z,3088.00
2018-09-06T07:43:17.792Z,3088.00
2018-09-06T07:44:17.816Z,3052.00
2018-09-06T07:45:17.775Z,3188.00
2018-09-06T07:46:17.758Z,3428.00
2018-09-06T07:47:17.748Z,3560.00
2018-09-06T07:48:17.735Z,3616.00
2018-09-06T07:49:17.749Z,3468.00
2018-09-06T07:50:17.715Z,3480.00
2018-09-06T07:51:17.712Z,3904.00
2018-09-06T07:52:17.753Z,4384.00
2018-09-06T07:53:17.684Z,4576.00
2018-09-06T07:54:17.687Z,4660.00
2018-09-06T07:55:17.653Z,4860.00
2018-09-06T07:56:17.646Z,5116.00
2018-09-06T07:57:17.641Z,5376.00
2018-09-06T07:58:17.631Z,5660.00
2018-09-06T07:59:17.642Z,5752.00
2018-09-06T08:00:17.606Z,5680.00
2018-09-06T08:01:17.603Z,5452.00
2018-09-06T08:02:17.538Z,5216.00
2018-09-06T08:03:17.578Z,5044.00
2018-09-06T08:04:17.737Z,5004.00
2018-09-06T08:05:17.562Z,5084.00
2018-09-06T08:06:17.552Z,5124.00
2018-09-06T08:07:17.534Z,5160.00
2018-09-06T08:08:17.520Z,5196.00
2018-09-06T08:09:17.536Z,5084.00
2018-09-06T08:10:17.507Z,4840.00
2018-09-06T08:11:17.499Z,4640.00
2018-09-06T08:12:17.471Z,4508.00
2018-09-06T08:13:17.468Z,4340.00
2018-09-06T08:14:17.584Z,4024.00
2018-09-06T08:15:17.442Z,3648.00
2018-09-06T08:16:17.432Z,3364.00
2018-09-06T08:17:17.425Z,3140.00
2018-09-06T08:18:17.409Z,3052.00
2018-09-06T08:19:17.430Z,3000.00
2018-09-06T08:20:17.388Z,2912.00
2018-09-06T08:21:17.378Z,2784.00
2018-09-06T08:22:17.361Z,2696.00
2018-09-06T08:23:17.359Z,2712.00
2018-09-06T08:24:17.358Z,2820.00
2018-09-06T08:25:17.350Z,2996.00
2018-09-06T08:26:17.319Z,3248.00
2018-09-06T08:27:17.356Z,3536.00
2018-09-06T08:28:17.299Z,3732.00
2018-09-06T08:29:17.291Z,3804.00
2018-09-06T08:30:17.314Z,3836.00
2018-09-06T08:31:17.299Z,3968.00
2018-09-06T08:32:17.258Z,4140.00
2018-09-06T08:33:17.201Z,4488.00
2018-09-06T08:34:17.233Z,4636.00
2018-09-06T08:35:17.245Z,4468.00
2018-09-06T08:36:17.180Z,4176.00
2018-09-06T08:37:17.209Z,3884.00
2018-09-06T08:38:17.191Z,3652.00
2018-09-06T08:39:17.187Z,3540.00
2018-09-06T08:40:17.192Z,3580.00
2018-09-06T08:41:17.113Z,3872.00
2018-09-06T08:42:17.176Z,4288.00
2018-09-06T08:43:17.143Z,4752.00
2018-09-06T08:44:17.127Z,5164.00
2018-09-06T08:45:17.163Z,5476.00
2018-09-06T08:46:17.101Z,5672.00
2018-09-06T08:47:17.088Z,5732.00
2018-09-06T08:48:17.081Z,5716.00
2018-09-06T08:49:17.066Z,5740.00
2018-09-06T08:50:17.079Z,5808.00
2018-09-06T08:51:17.042Z,5776.00
2018-09-06T08:52:17.080Z,5696.00
2018-09-06T08:53:17.020Z,5676.00
2018-09-06T08:54:17.013Z,5676.00
2018-09-06T08:55:17.020Z,5640.00
2018-09-06T08:56:17.029Z,5616.00
2018-09-06T08:57:16.978Z,5596.00
2018-09-06T08:58:16.978Z,5576.00
2018-09-06T08:59:16.954Z,5592.00
2018-09-06T09:00:16.972Z,5620.00
2018-09-06T09:01:16.936Z,5664.00
2018-09-06T09:02:17.090Z,5712.00
2018-09-06T09:03:16.940Z,5776.00
2018-09-06T09:04:16.908Z,5900.00
2018-09-06T09:05:16.926Z,6116.00
2018-09-06T09:06:16.881Z,6296.00
2018-09-06T09:07:16.831Z,6352.00
2018-09-06T09:08:16.880Z,6316.00
2018-09-06T09:09:16.852Z,6244.00
2018-09-06T09:10:16.860Z,6136.00
2018-09-06T09:11:16.826Z,6012.00
2018-09-06T09:12:16.817Z,6112.00
2018-09-06T09:13:16.826Z,6432.00
2018-09-06T09:14:16.797Z,6852.00
2018-09-06T09:15:16.801Z,7348.00
2018-09-06T09:16:16.948Z,7872.00
2018-09-06T09:17:16.806Z,8340.00
2018-09-06T09:18:16.801Z,8660.00
2018-09-06T09:19:16.704Z,8864.00
2018-09-06T09:20:16.772Z,9008.00
2018-09-06T09:21:16.717Z,9224.00
2018-09-06T09:22:16.783Z,9484.00
2018-09-06T09:23:16.703Z,9844.00
2018-09-06T09:24:16.693Z,10248.00
2018-09-06T09:25:16.700Z,10496.00
2018-09-06T09:26:16.673Z,10604.00
2018-09-06T09:27:16.658Z,10548.00
2018-09-06T09:28:16.648Z,10436.00
2018-09-06T09:29:16.636Z,10224.00
2018-09-06T09:30:16.606Z,10000.00
2018-09-06T09:31:16.615Z,9664.00
2018-09-06T09:32:16.605Z,9296.00
2018-09-06T09:33:16.592Z,9004.00
2018-09-06T09:34:16.582Z,8808.00
2018-09-06T09:35:16.571Z,8676.00
2018-09-06T09:36:16.582Z,8652.00
2018-09-06T09:37:16.560Z,8804.00
2018-09-06T09:38:16.538Z,9140.00
2018-09-06T09:39:16.523Z,9556.00
2018-09-06T09:40:16.516Z,9916.00
2018-09-06T09:41:16.486Z,10188.00
2018-09-06T09:42:16.492Z,10424.00
2018-09-06T09:43:16.551Z,10676.00
2018-09-06T09:44:16.475Z,10916.00
2018-09-06T09:45:16.469Z,11200.00
2018-09-06T09:47:43.335Z,12492.00
2018-09-06T09:48:43.312Z,12944.00
2018-09-06T09:49:43.362Z,13268.00
2018-09-06T09:51:12.112Z,13508.00
2018-09-06T09:52:12.106Z,13516.00
2018-09-06T09:53:12.175Z,13496.00
2018-09-06T09:54:12.068Z,13536.00
2018-09-06T09:55:12.060Z,13480.00
2018-09-06T09:56:12.071Z,13240.00
2018-09-06T09:57:12.058Z,12768.00
2018-09-06T09:58:12.037Z,11972.00
2018-09-06T09:59:12.094Z,10896.00
2018-09-06T10:00:12.010Z,9816.00
2018-09-06T10:01:12.024Z,8968.00
2018-09-06T10:02:11.988Z,8576.00
2018-09-06T10:03:11.983Z,8820.00
2018-09-06T10:04:11.959Z,9844.00
2018-09-06T10:05:11.971Z,11340.00
2018-09-06T10:06:11.990Z,12604.00
2018-09-06T10:07:11.887Z,13128.00
2018-09-06T10:08:11.926Z,13048.00
2018-09-06T10:09:11.926Z,12496.00
2018-09-06T10:10:11.904Z,11584.00
2018-09-06T10:11:11.926Z,10608.00
2018-09-06T10:12:11.882Z,9692.00
2018-09-06T10:13:11.866Z,8952.00
2018-09-06T10:14:11.851Z,8352.00
2018-09-06T10:15:11.853Z,7820.00
2018-09-06T10:16:11.860Z,7384.00
2018-09-06T10:17:11.825Z,7100.00
2018-09-06T10:18:11.778Z,6948.00
2018-09-06T10:19:11.804Z,6836.00
2018-09-06T10:20:11.787Z,6836.00
2018-09-06T10:21:11.750Z,7012.00
2018-09-06T10:22:11.780Z,7380.00
2018-09-06T10:23:11.756Z,7832.00
2018-09-06T10:24:11.752Z,8420.00
2018-09-06T10:25:11.747Z,9164.00
2018-09-06T10:26:11.756Z,10000.00
2018-09-06T10:27:11.713Z,10984.00
2018-09-06T10:28:11.701Z,11936.00
2018-09-06T10:29:11.693Z,12772.00
2018-09-06T10:30:11.682Z,13456.00
2018-09-06T10:31:11.623Z,13824.00
2018-09-06T10:32:11.680Z,14000.00
2018-09-06T10:33:11.652Z,14020.00
2018-09-06T10:34:11.636Z,14016.00
2018-09-06T10:35:11.599Z,13896.00
2018-09-06T10:36:11.613Z,13804.00
2018-09-06T10:37:11.630Z,13672.00
2018-09-06T10:38:11.596Z,13504.00
2018-09-06T10:39:11.623Z,13228.00
2018-09-06T10:40:11.571Z,12840.00
2018-09-06T10:41:11.559Z,12360.00
2018-09-06T10:42:11.584Z,11796.00
2018-09-06T10:43:11.544Z,11340.00
2018-09-06T10:44:11.523Z,11000.00
2018-09-06T10:45:11.472Z,10612.00
2018-09-06T10:46:11.501Z,10312.00
2018-09-06T10:47:11.522Z,10084.00
2018-09-06T10:48:11.484Z,9696.00
2018-09-06T10:49:11.471Z,9084.00
2018-09-06T10:50:11.463Z,8508.00
2018-09-06T10:51:11.453Z,8212.00
2018-09-06T10:52:11.437Z,8192.00
2018-09-06T10:53:11.433Z,8304.00
2018-09-06T10:54:11.452Z,8332.00
2018-09-06T10:55:11.409Z,8248.00
2018-09-06T10:56:11.360Z,8196.00
2018-09-06T10:57:11.405Z,8232.00
2018-09-06T10:58:11.448Z,8300.00
2018-09-06T10:59:11.366Z,8468.00
2018-09-06T11:00:11.356Z,8764.00
2018-09-06T11:01:11.349Z,9244.00
2018-09-06T11:02:11.441Z,9560.00
2018-09-06T11:03:11.321Z,9728.00
2018-09-06T11:04:11.321Z,9736.00
2018-09-06T11:05:11.303Z,9620.00
2018-09-06T11:06:11.319Z,9436.00
2018-09-06T11:07:11.304Z,9120.00
2018-09-06T11:08:11.339Z,8652.00
2018-09-06T11:09:11.214Z,8180.00
2018-09-06T11:10:11.209Z,7896.00
2018-09-06T11:11:11.233Z,7856.00
2018-09-06T11:12:11.274Z,7964.00
2018-09-06T11:13:11.214Z,8012.00
2018-09-06T11:14:11.203Z,7904.00
2018-09-06T11:15:11.197Z,7632.00
2018-09-06T11:16:11.180Z,7384.00
2018-09-06T11:17:11.199Z,7248.00
2018-09-06T11:18:11.162Z,7208.00
2018-09-06T11:19:11.152Z,7220.00
2018-09-06T11:20:11.142Z,7260.00
2018-09-06T11:21:11.240Z,7244.00
2018-09-06T11:22:11.277Z,7356.00
2018-09-06T11:23:11.111Z,7760.00
2018-09-06T11:24:11.095Z,8404.00
2018-09-06T11:25:11.136Z,9180.00
2018-09-06T11:26:11.035Z,9964.00
2018-09-06T11:27:11.099Z,10408.00
2018-09-06T11:28:11.057Z,10760.00
2018-09-06T11:29:11.061Z,11364.00
2018-09-06T11:30:11.036Z,11976.00
2018-09-06T11:31:18.037Z,12796.00
2018-09-06T11:32:11.019Z,14000.00
2018-09-06T11:33:11.045Z,15132.00
2018-09-06T11:34:10.988Z,15652.00
2018-09-06T11:35:10.985Z,16064.00
2018-09-06T11:36:10.970Z,16292.00
2018-09-06T11:37:10.956Z,15644.00
2018-09-06T11:38:10.981Z,14732.00
2018-09-06T11:39:10.936Z,13764.00
2018-09-06T11:40:11.021Z,13024.00
2018-09-06T11:41:10.918Z,12212.00
2018-09-06T11:42:10.903Z,11620.00
2018-09-06T11:43:10.919Z,11412.00
2018-09-06T11:44:10.884Z,11112.00
2018-09-06T11:45:10.874Z,10976.00
2018-09-06T11:46:10.871Z,10912.00
2018-09-06T11:47:10.916Z,10464.00
2018-09-06T11:48:10.862Z,9916.00
2018-09-06T11:49:10.790Z,9388.00
2018-09-06T11:50:10.817Z,9096.00
2018-09-06T11:51:10.769Z,9240.00
2018-09-06T11:52:10.800Z,9660.00
2018-09-06T11:53:10.925Z,10164.00
2018-09-06T11:54:10.733Z,10512.00
2018-09-06T11:55:10.750Z,10612.00
2018-09-06T11:56:10.763Z,10668.00
2018-09-06T11:57:10.743Z,10808.00
2018-09-06T11:58:10.714Z,11028.00
2018-09-06T11:59:10.793Z,11208.00
2018-09-06T12:00:10.716Z,11384.00
2018-09-06T12:01:10.659Z,11640.00
2018-09-06T12:02:10.725Z,11996.00
2018-09-06T12:03:10.713Z,12292.00
2018-09-06T12:04:10.669Z,12464.00
2018-09-06T12:05:10.725Z,12592.00
2018-09-06T12:06:10.664Z,12812.00
2018-09-06T12:07:10.634Z,13096.00
2018-09-06T12:08:10.658Z,13212.00
2018-09-06T12:09:10.612Z,13344.00
2018-09-06T12:10:10.601Z,13360.00
2018-09-06T12:11:10.589Z,13228.00
2018-09-06T12:12:10.593Z,13052.00
2018-09-06T12:13:10.604Z,12692.00
2018-09-06T12:14:10.516Z,12136.00
2018-09-06T12:15:10.546Z,11528.00
2018-09-06T12:16:10.569Z,10892.00
2018-09-06T12:17:10.532Z,10144.00
2018-09-06T12:18:10.541Z,9340.00
2018-09-06T12:19:10.504Z,8684.00
2018-09-06T12:20:10.501Z,8164.00
2018-09-06T12:21:10.490Z,7732.00
2018-09-06T12:22:10.471Z,7384.00
2018-09-06T12:23:10.482Z,7124.00
2018-09-06T12:24:10.455Z,6840.00
2018-09-06T12:25:10.505Z,6540.00
2018-09-06T12:26:10.434Z,6284.00
2018-09-06T12:27:10.419Z,6096.00
2018-09-06T12:28:10.440Z,5976.00
2018-09-06T12:29:10.399Z,5816.00
2018-09-06T12:30:10.399Z,5748.00
2018-09-06T12:31:10.384Z,5728.00
2018-09-06T12:32:10.365Z,5564.00